LDRI METAR and TAF | Updated Today

LDRI METAR

Rijeka Airport

Observation time: 61 min. ago

LDRI 061800Z 01010KT 320V070 CAVOK 01/M11 Q1034

Need help? Read our tutorial on how to read METARs or read the parsed version below.

Rijeka Airport (LDRI) METAR

  • Weather conditions on Mon, 06 Feb 2023 18:00:00 +0000 (61 min. ago):
  • Present conditions: Dry
  • Clouds: Clear skies
  • Visibility: Greater than 10 km
  • Wind: 10 degrees at 10 knots
  • Temperature: 1 celsius
  • Dew point: -11 celsius
  • Pressure: 1034 millibars
  • Remarks: None


Useful to know...

LDRI TAF

Rijeka Airport

TAF LDRI 061125Z 0612/0712 03010KT CAVOK TX04/0711Z TNM03/0705Z TEMPO 0615/0706 VRB10KT PROB30 TEMPO 0620/0706 06015G25KT
Observation time: 7:36 hr. ago
Need help? Read our tutorial on how to read TAFs or read the parsed version below.

Parsed version of TAF for Rijeka Airport (LDRI)

  • From 06 February at 12:00 UTC, to day 07 of the month at 12:00 UTC
  • Visibility: Greater than 10 km
  • Wind: 30 degrees at 10
  • Expected to arise temporarily, from 06 February at 15:00 UTC, to day 07 of the month at 06:00 UTC
  • Wind: Variable at 10
  • Expected to arise temporarily, from 06 February at 20:00 UTC, to day 07 of the month at 06:00 UTC
    Probability of 30%
  • Wind: 60 degrees at 15